Girdwood, AK

1:12 PM AKDT on July 27, 2016 (GMT -0800)
Girdwood K-8 School | | Change Station

Elev 158 ft 60.97 °N, 149.13 °W | Updated 11 minutes ago

Overcast
Overcast
63.0 °F
Feels Like 63.0 °F
N
2.0
Wind Variable Wind from WSW
Gusts 8.0 mph

Today
High -- | Low -- °F
--% Chance of Precip.
Yesterday
High -- | Low -- °F
Precip. -- in
Pressure 29.90 in
Visibility 3.0 miles
Clouds Few 2100 ft
Mostly Cloudy 3400 ft
Overcast 5000 ft
Dew Point 55 °F
Humidity 76%
Rainfall 0.00 in
Snow Depth Not available.
5:19 AM 10:44 PM
Last Quarter, 39% visible
SPECI PATO 272101Z AUTO 16006KT 3SM -RA BR FEW021 BKN034 OVC050 13/12 A2990 RMK AO2 P0000 T01330117 TSNO
Pressure 29.90 in
Visibility 3.0 miles
Clouds Few 2100 ft
Mostly Cloudy 3400 ft
Overcast 5000 ft
Dew Point 55 °F
Humidity 76%
Rainfall 0.00 in
Snow Depth Not available.
5:19 AM 10:44 PM
Last Quarter, 39% visible
SPECI PATO 272101Z AUTO 16006KT 3SM -RA BR FEW021 BKN034 OVC050 13/12 A2990 RMK AO2 P0000 T01330117 TSNO

10-Day Weather Forecast

Almanac

Astronomy

Jul. 27, 2016 Rise Set
Actual Time
Civil Twilight
Nautical Twilight
Astronomical Twilight
Moon
Length of Visible Light
Length of Day
Tomorrow will be .
, % of the Moon is Illuminated

Today's Extremes

State Highs State Lows

Community

WunderPhotos

Upload Photos

1,927,937 photos uploaded!

WunderBlog® & News

Nearby

Air Quality

  Air Quality AQ Index Pollutant
Not available.

Snow Depth

Station Depth Elevation

Earthquake Activity

City Distance Mag. Time & Date
Minimum magnitude displayed is 2.5.

Coastal Water Temperatures

Place Temperature

Stations

Nearby Weather Stations

Station Location Temp. Windchill Dew Point Humidity Wind Precip. Elev Updated Type
                   

Watches & Warnings

There are currently no watches in effect.